Latest Weather Observations for Lake Grace

IDW60801

Issued at 4:32 pm WST Tuesday 7 July 2015 (issued every 30 minutes, with the page automatically refreshed every 10 minutes)

About weather observations | Map of weather stations | Latest weather observations for WA | Other Formats
Station Details ID: 010911 Name: LAKE GRACE Lat: -33.10 Lon: 118.46 Height: 286.0 m
Data from the previous 72 hours. | See also: Recent months at Lake Grace
Date/Time
WST
Temp
°C
App
Temp
°C
Dew
Point
Rel
Hum
%
Delta-T
°C
Wind Press
QNH
hPa
Press
MSL
hPa
Rain
since 9 am
mm
Dir
 
Spd
km/h
Gust
km/h
Spd
kts
Gust
kts
07/04:30pm 14.2 13.4 12.8 91 0.8 NW 9 13 5 7 1017.2 1017.4 0.6
07/04:00pm 13.9 11.9 12.8 93 0.6 NW 15 22 8 12 1017.3 1017.5 0.6
07/03:30pm 13.7 11.3 12.6 93 0.6 NW 17 22 9 12 1017.4 1017.6 0.4
07/03:00pm 14.3 11.3 11.8 85 1.4 NW 19 28 10 15 1017.4 1017.6 0.0
07/02:30pm 15.8 12.7 11.6 76 2.3 NW 19 32 10 17 1017.4 1017.6 0.0
07/02:00pm 15.8 11.9 10.8 72 2.7 NW 22 30 12 16 1017.4 1017.6 0.0
07/01:30pm 16.9 13.3 10.7 67 3.4 NW 20 35 11 19 1017.4 1017.6 0.0
07/01:00pm 16.2 12.8 11.2 72 2.7 WNW 20 30 11 16 1017.8 1018.0 0.0
07/12:30pm 16.6 13.1 10.9 69 3.1 WNW 20 28 11 15 1018.0 1018.2 0.0
07/12:00pm 17.0 13.8 11.1 68 3.2 NW 19 26 10 14 1018.4 1018.6 0.0
07/11:30am 16.4 12.9 10.9 70 3.0 NW 20 28 11 15 1018.8 1019.0 0.0
07/11:00am 15.8 12.6 11.4 75 2.4 NNW 19 26 10 14 1019.3 1019.5 0.0
07/10:30am 14.7 11.9 11.5 81 1.7 NNW 17 24 9 13 1019.7 1019.9 0.0
07/10:00am 13.7 10.7 12.1 90 0.9 NNW 19 26 10 14 1019.9 1020.2 0.0
07/09:30am 12.4 9.3 11.6 95 0.4 NNW 19 28 10 15 1019.9 1020.2 0.0
07/09:00am 12.2 9.5 11.6 96 0.3 NNW 17 22 9 12 1019.8 1020.0 0.6
07/08:30am 12.0 9.6 11.5 97 0.3 NNW 15 19 8 10 1019.7 1019.9 0.6
07/08:00am 11.1 8.8 10.6 97 0.3 N 13 17 7 9 1019.7 1019.9 0.6
07/07:30am 10.9 9.4 10.4 97 0.3 N 9 13 5 7 1019.8 1020.0 0.6
07/07:00am 11.1 9.6 10.6 97 0.3 NW 9 13 5 7 1019.7 1019.9 0.6
07/06:30am 11.0 9.5 10.5 97 0.3 NW 9 13 5 7 1019.6 1019.8 0.6
07/06:00am 10.6 9.0 10.1 97 0.3 NW 9 11 5 6 1019.5 1019.7 0.6
07/05:30am 10.9 9.0 10.4 97 0.3 WNW 11 15 6 8 1019.3 1019.5 0.6
07/05:00am 11.1 9.6 10.6 97 0.3 WNW 9 15 5 8 1019.2 1019.4 0.6
07/04:30am 11.5 9.7 11.0 97 0.3 WNW 11 15 6 8 1019.0 1019.2 0.6
07/04:00am 11.1 10.0 10.6 97 0.3 NNW 7 11 4 6 1018.9 1019.1 0.6
07/03:30am 10.2 9.0 9.6 96 0.3 N 6 7 3 4 1019.3 1019.5 0.6
07/03:00am 10.8 9.8 10.2 96 0.3 NNW 6 7 3 4 1019.6 1019.8 0.6
07/02:30am 11.4 10.3 10.8 96 0.3 NW 7 11 4 6 1019.5 1019.7 0.4
07/02:00am 12.0 10.7 11.4 96 0.3 NW 9 15 5 8 1019.6 1019.8 0.4
07/01:30am 12.3 11.1 11.7 96 0.3 NW 9 13 5 7 1019.7 1019.9 0.4
07/01:00am 12.8 11.8 12.2 96 0.3 NW 9 19 5 10 1019.9 1020.2 0.4
07/12:30am 12.6 11.5 12.0 96 0.3 NNW 9 13 5 7 1019.8 1020.0 0.4
07/12:00am 12.3 11.1 11.7 96 0.3 NNW 9 13 5 7 1020.0 1020.3 0.4
 
Date/Time
WST
Temp
°C
App
Temp
°C
Dew
Point
Rel
Hum
%
Delta-T
°C
Wind Press
QNH
hPa
Press
MSL
hPa
Rain
since 9 am
mm
Dir
 
Spd
km/h
Gust
km/h
Spd
kts
Gust
kts
06/11:30pm 12.6 11.5 11.8 95 0.4 NNW 9 13 5 7 1020.1 1020.4 0.4
06/11:00pm 13.0 11.6 12.2 95 0.4 NNW 11 15 6 8 1020.3 1020.6 0.4
06/10:30pm 13.1 11.7 12.2 94 0.5 NNW 11 17 6 9 1020.6 1020.8 0.4
06/10:00pm 12.7 11.2 11.8 94 0.5 NNW 11 15 6 8 1020.8 1021.0 0.4
06/09:30pm 12.4 11.5 11.3 93 0.6 N 7 9 4 5 1020.9 1021.1 0.4
06/09:00pm 12.9 12.6 11.6 92 0.7 NW 4 6 2 3 1020.9 1021.1 0.4
06/08:30pm 13.0 11.7 11.4 90 0.9 NW 9 17 5 9 1021.0 1021.2 0.4
06/08:00pm 13.4 12.4 10.9 85 1.3 NNW 7 9 4 5 1021.1 1021.3 0.0
06/07:30pm 13.8 12.3 10.6 81 1.7 NNW 9 13 5 7 1021.0 1021.2 0.0
06/07:00pm 13.7 11.7 10.3 80 1.8 N 11 13 6 7 1020.8 1021.0 0.0
06/06:30pm 14.1 12.1 10.3 78 2.0 N 11 15 6 8 1020.6 1020.8 0.0
06/06:00pm 14.4 12.0 10.2 76 2.2 NNW 13 20 7 11 1020.4 1020.7 0.0
06/05:30pm 14.6 12.2 10.2 75 2.3 NNW 13 19 7 10 1020.3 1020.6 0.0
06/05:00pm 14.7 12.3 9.9 73 2.5 NNW 13 20 7 11 1020.2 1020.5 0.0
06/04:30pm 15.0 12.1 9.8 71 2.7 NNW 15 19 8 10 1020.2 1020.5 0.0
06/04:00pm 15.1 11.8 9.7 70 2.8 NNW 17 24 9 13 1020.3 1020.6 0.0
06/03:30pm 14.9 12.4 9.7 71 2.7 NNW 13 19 7 10 1020.2 1020.5 0.0
06/03:00pm 14.9 12.0 9.5 70 2.8 NNW 15 22 8 12 1020.3 1020.6 0.0
06/02:30pm 15.2 11.7 8.9 66 3.3 NNW 17 24 9 13 1020.3 1020.6 0.0
06/02:00pm 15.1 11.9 9.9 71 2.7 NNW 17 22 9 12 1020.3 1020.6 0.0
06/01:30pm 14.4 10.8 10.0 75 2.3 N 19 24 10 13 1020.6 1020.8 0.0
06/01:00pm 14.0 10.7 9.6 75 2.3 N 17 24 9 13 1021.1 1021.3 0.0
06/12:30pm 13.9 11.2 10.5 80 1.8 N 15 20 8 11 1021.6 1021.8 0.0
06/12:00pm 13.0 10.9 12.4 96 0.3 N 15 24 8 13 1022.3 1022.5 0.0
06/11:30am 11.4 9.3 11.2 99 0.1 NNW 13 17 7 9 1022.7 1022.9 0.0
06/11:00am 10.7 8.4 10.5 99 0.1 N 13 17 7 9 1022.9 1023.2 0.0
06/10:30am 9.7 7.9 9.6 99 0.1 N 9 13 5 7 1023.2 1023.5 0.0
06/10:00am 8.6 6.9 8.5 99 0.0 N 7 9 4 5 1023.3 1023.6 0.0
06/09:30am 7.3 4.9 7.2 99 0.0 N 9 11 5 6 1023.2 1023.5 0.0
06/09:00am 6.6 4.1 6.5 99 0.0 N 9 13 5 7 1023.2 1023.5 0.4
06/08:30am 6.0 3.4 5.9 99 0.0 N 9 15 5 8 1022.9 1023.2 0.4
06/08:00am 5.4 3.0 5.3 99 0.0 N 7 11 4 6 1022.7 1022.9 0.4
06/07:30am 4.9 2.6 4.8 99 0.0 N 6 9 3 5 1022.4 1022.6 0.4
06/07:00am 5.0 2.7 4.9 99 0.0 NNE 6 9 3 5 1022.1 1022.3 0.4
06/06:30am 5.1 2.6 4.8 98 0.1 NNE 7 9 4 5 1021.9 1022.1 0.4
06/06:00am 5.0 3.8 4.7 98 0.1 CALM 0 0 0 0 1021.8 1022.0 0.4
06/05:30am 5.1 3.9 4.8 98 0.1 CALM 0 0 0 0 1021.7 1021.9 0.2
06/05:00am 5.4 4.3 5.1 98 0.1 CALM 0 0 0 0 1021.5 1021.7 0.2
06/04:30am 5.7 4.7 5.4 98 0.1 CALM 0 0 0 0 1021.5 1021.7 0.2
06/04:00am 6.4 5.5 6.1 98 0.1 CALM 0 0 0 0 1021.5 1021.7 0.2
06/03:30am 6.8 6.0 6.5 98 0.1 CALM 0 0 0 0 1021.6 1021.8 0.2
06/03:00am 7.4 6.7 7.1 98 0.1 CALM 0 4 0 2 1021.6 1021.8 0.2
06/02:30am 7.6 5.6 7.3 98 0.1 N 7 7 4 4 1021.4 1021.6 0.2
06/02:00am 7.5 5.7 7.1 97 0.2 NNW 6 7 3 4 1021.6 1021.8 0.2
06/01:30am 7.5 5.5 7.1 97 0.2 N 7 9 4 5 1021.6 1021.8 0.2
06/01:00am 7.1 6.3 6.7 97 0.2 CALM 0 0 0 0 1021.5 1021.7 0.2
06/12:30am 7.6 6.6 7.2 97 0.2 N 2 7 1 4 1021.6 1021.8 0.2
06/12:00am 7.6 5.8 7.0 96 0.3 NNE 6 9 3 5 1021.7 1021.9 0.0
 
Date/Time
WST
Temp
°C
App
Temp
°C
Dew
Point
Rel
Hum
%
Delta-T
°C
Wind Press
QNH
hPa
Press
MSL
hPa
Rain
since 9 am
mm
Dir
 
Spd
km/h
Gust
km/h
Spd
kts
Gust
kts
05/11:30pm 7.0 6.2 6.4 96 0.3 CALM 0 6 0 3 1021.7 1021.9 0.0
05/11:00pm 6.7 5.8 6.0 95 0.3 CALM 0 0 0 0 1021.8 1022.0 0.0
05/10:30pm 7.5 6.7 6.6 94 0.4 CALM 0 0 0 0 1021.8 1022.0 0.0
05/10:00pm 8.8 8.3 7.9 94 0.4 CALM 0 0 0 0 1021.9 1022.1 0.0
05/09:30pm 9.7 9.4 8.8 94 0.4 CALM 0 0 0 0 1021.9 1022.1 0.0
05/09:00pm 10.6 10.6 9.7 94 0.5 CALM 0 0 0 0 1021.9 1022.1 0.0
05/08:30pm 11.3 11.4 10.2 93 0.6 CALM 0 0 0 0 1021.9 1022.1 0.0
05/08:00pm 11.5 11.7 10.4 93 0.6 CALM 0 0 0 0 1021.7 1021.9 0.0
05/07:30pm 12.4 11.6 11.1 92 0.7 N 6 7 3 4 1021.4 1021.6 0.0
05/07:00pm 12.7 11.8 11.3 91 0.7 NNW 7 11 4 6 1021.2 1021.4 0.0
05/06:30pm 12.7 11.7 10.9 89 1.0 NNW 7 9 4 5 1021.3 1021.5 0.0
05/06:00pm 13.5 12.6 11.2 86 1.2 NW 7 9 4 5 1021.0 1021.2 0.0
05/05:30pm 13.9 12.9 11.1 83 1.5 NW 7 11 4 6 1020.8 1021.0 0.0
05/05:00pm 14.4 13.0 10.8 79 1.9 WNW 9 11 5 6 1020.7 1020.9 0.0
05/04:30pm 14.4 13.0 10.8 79 1.9 NW 9 11 5 6 1020.6 1020.8 0.0
05/04:00pm 14.5 13.8 11.3 81 1.7 NW 6 9 3 5 1020.4 1020.7 0.0
05/03:30pm 14.1 12.8 11.3 83 1.5 NNW 9 11 5 6 1020.3 1020.6 0.0
05/03:00pm 14.0 12.6 11.0 82 1.6 NNW 9 13 5 7 1020.4 1020.7 0.0
05/02:30pm 13.9 12.3 11.6 86 1.2 N 11 13 6 7 1020.4 1020.7 0.0
05/02:00pm 13.5 11.8 11.2 86 1.2 N 11 13 6 7 1020.6 1020.8 0.0
05/01:30pm 13.4 12.1 11.3 87 1.1 N 9 15 5 8 1020.7 1020.9 0.0
05/01:00pm 13.3 12.0 11.4 88 1.0 NNW 9 13 5 7 1020.9 1021.1 0.0
05/12:30pm 13.1 12.2 11.2 88 1.0 NNW 7 9 4 5 1021.0 1021.2 0.0
05/12:00pm 13.0 12.0 10.9 87 1.1 NW 7 9 4 5 1021.5 1021.7 0.0
05/11:30am 12.9 11.9 11.1 89 1.0 N 7 9 4 5 1021.8 1022.0 0.0
05/11:00am 12.5 11.7 11.1 91 0.7 NW 6 9 3 5 1022.1 1022.3 0.0
05/10:30am 12.4 11.7 11.5 94 0.5 NNW 6 7 3 4 1022.2 1022.4 0.0
05/10:00am 11.9 11.1 11.1 95 0.4 NW 6 7 3 4 1022.3 1022.5 0.0
05/09:30am 11.5 10.7 10.9 96 0.3 NW 6 7 3 4 1022.2 1022.4 0.0
05/09:00am 11.2 10.3 10.6 96 0.3 N 6 9 3 5 1022.0 1022.2 0.2
05/08:30am 11.0 10.0 10.4 96 0.3 NNW 6 9 3 5 1021.8 1022.0 0.2
05/08:00am 10.8 10.9 10.2 96 0.3 CALM 0 0 0 0 1021.6 1021.8 0.2
05/07:30am 10.5 9.8 9.9 96 0.3 NNW 4 7 2 4 1021.4 1021.6 0.2
05/07:00am 10.4 10.3 9.6 95 0.4 CALM 0 0 0 0 1021.1 1021.3 0.2
05/06:30am 10.5 10.5 9.7 95 0.4 CALM 0 0 0 0 1021.0 1021.2 0.2
05/06:00am 10.1 10.0 9.3 95 0.4 CALM 0 0 0 0 1020.7 1020.9 0.2
05/05:30am 9.6 9.3 8.8 95 0.4 CALM 0 0 0 0 1020.4 1020.7 0.2
05/05:00am 9.8 8.4 9.0 95 0.4 NNW 6 6 3 3 1020.3 1020.6 0.2
05/04:30am 9.8 8.3 9.0 95 0.4 N 7 9 4 5 1020.2 1020.5 0.2
05/04:00am 9.2 7.5 8.4 95 0.4 N 7 9 4 5 1020.2 1020.5 0.2
05/03:30am 8.9 7.1 8.0 94 0.4 N 7 9 4 5 1020.2 1020.5 0.2
05/03:00am 8.3 6.6 7.4 94 0.4 NNE 6 7 3 4 1020.3 1020.6 0.2
05/02:30am 8.7 7.4 7.6 93 0.5 NE 4 6 2 3 1020.4 1020.7 0.2
05/02:00am 8.6 6.9 7.4 92 0.6 N 6 7 3 4 1020.6 1020.8 0.2
05/01:30am 9.1 7.5 7.9 92 0.6 NNW 6 7 3 4 1020.6 1020.8 0.2
05/01:00am 8.8 7.1 7.6 92 0.6 N 6 7 3 4 1020.7 1020.9 0.2
05/12:30am 8.9 8.3 7.5 91 0.7 CALM 0 0 0 0 1020.7 1020.9 0.2
05/12:00am 9.4 7.7 7.7 89 0.8 NNE 6 7 3 4 1020.7 1020.9 0.0
 
Date/Time
WST
Temp
°C
App
Temp
°C
Dew
Point
Rel
Hum
%
Delta-T
°C
Wind Press
QNH
hPa
Press
MSL
hPa
Rain
since 9 am
mm
Dir
 
Spd
km/h
Gust
km/h
Spd
kts
Gust
kts
04/11:30pm 10.7 8.8 9.0 89 0.9 WNW 9 13 5 7 1020.4 1020.7 0.0
04/11:00pm 11.0 9.2 9.4 90 0.8 WNW 9 13 5 7 1020.6 1020.8 0.0
04/10:30pm 11.4 9.7 10.0 91 0.7 WNW 9 15 5 8 1020.7 1020.9 0.0
04/10:00pm 11.7 9.8 10.4 92 0.7 WNW 11 13 6 7 1020.8 1021.0 0.0
04/09:30pm 11.3 9.7 10.2 93 0.6 NW 9 11 5 6 1020.8 1021.0 0.0
04/09:00pm 10.7 9.2 9.3 91 0.7 NNW 7 9 4 5 1020.8 1021.0 0.0
04/08:30pm 11.4 10.3 9.8 90 0.8 NNW 6 9 3 5 1020.7 1020.9 0.0
04/08:00pm 11.8 10.1 10.0 89 0.9 NNW 9 13 5 7 1020.6 1020.8 0.0
04/07:30pm 13.8 12.9 11.3 85 1.3 NW 7 9 4 5 1020.6 1020.8 0.0
04/07:00pm 14.5 13.7 11.6 83 1.6 WNW 7 9 4 5 1020.6 1020.8 0.0
04/06:30pm 14.7 13.8 11.5 81 1.7 WNW 7 9 4 5 1020.3 1020.6 0.0
04/06:00pm 15.4 14.2 11.6 78 2.1 WNW 9 13 5 7 1020.1 1020.4 0.0
04/05:30pm 15.9 14.4 11.9 77 2.2 NW 11 19 6 10 1020.0 1020.3 0.0
04/05:00pm 16.4 14.4 11.6 73 2.6 NW 13 19 7 10 1019.7 1019.9 0.0

Other Formats:

Comma delimited format used in spreadsheet applications
http://www.bom.gov.au/fwo/IDW60801/IDW60801.95637.axf

JavaScript Object Notation format (JSON) in row-major order
http://www.bom.gov.au/fwo/IDW60801/IDW60801.95637.json